createdAt,value
2018-06-19T00:02:23.905Z,16.30
2018-06-19T00:04:54.491Z,9.87
2018-06-19T00:07:25.137Z,12.77
2018-06-19T00:09:55.957Z,14.50
2018-06-19T00:12:26.500Z,11.47
2018-06-19T00:14:58.102Z,11.37
2018-06-19T00:17:28.409Z,10.87
2018-06-19T00:19:59.126Z,14.67
2018-06-19T00:22:30.239Z,9.13
2018-06-19T00:25:00.860Z,10.93
2018-06-19T00:27:31.841Z,11.93
2018-06-19T00:30:01.993Z,12.43
2018-06-19T00:32:32.548Z,16.27
2018-06-19T00:35:03.168Z,14.83
2018-06-19T00:37:33.846Z,16.33
2018-06-19T00:40:04.768Z,14.60
2018-06-19T00:42:35.077Z,16.10
2018-06-19T00:45:05.728Z,17.53
2018-06-19T00:47:37.652Z,12.53
2018-06-19T00:50:08.377Z,14.57
2018-06-19T00:52:38.686Z,12.10
2018-06-19T00:55:09.383Z,10.47
2018-06-19T00:57:40.278Z,11.70
2018-06-19T01:00:10.949Z,15.03
2018-06-19T01:02:41.799Z,12.50
2018-06-19T01:05:12.866Z,13.30
2018-06-19T01:07:43.565Z,16.70
2018-06-19T01:10:13.532Z,14.33
2018-06-19T01:12:43.505Z,13.07
2018-06-19T01:15:14.384Z,17.17
2018-06-19T01:17:44.998Z,14.60
2018-06-19T01:20:15.385Z,16.87
2018-06-19T01:22:45.954Z,18.60
2018-06-19T01:25:16.406Z,15.13
2018-06-19T01:27:47.273Z,16.87
2018-06-19T01:30:17.797Z,17.37
2018-06-19T01:32:48.525Z,24.10
2018-06-19T01:35:19.252Z,19.90
2018-06-19T01:37:49.544Z,16.53
2018-06-19T01:40:20.371Z,15.60
2018-06-19T01:42:51.340Z,14.80
2018-06-19T01:45:22.255Z,17.60
2018-06-19T01:47:53.533Z,14.13
2018-06-19T01:50:24.198Z,14.63
2018-06-19T01:52:54.849Z,14.23
2018-06-19T01:55:27.132Z,14.97
2018-06-19T01:57:58.361Z,15.93
2018-06-19T02:00:28.402Z,15.53
2018-06-19T02:02:58.775Z,18.63
2018-06-19T02:05:29.405Z,15.57
2018-06-19T02:07:59.844Z,16.90
2018-06-19T02:10:30.274Z,14.63
2018-06-19T02:13:00.918Z,10.97
2018-06-19T02:15:31.492Z,13.73
2018-06-19T02:18:02.473Z,12.67
2018-06-19T02:20:32.368Z,16.27
2018-06-19T02:23:02.796Z,16.07
2018-06-19T02:25:33.679Z,15.53
2018-06-19T02:28:04.075Z,17.17
2018-06-19T02:30:34.056Z,17.40
2018-06-19T02:33:04.817Z,15.43
2018-06-19T02:35:35.346Z,14.07
2018-06-19T02:38:05.832Z,11.73
2018-06-19T02:40:36.778Z,13.43
2018-06-19T02:43:07.397Z,13.47
2018-06-19T02:45:37.797Z,15.13
2018-06-19T02:48:08.491Z,13.10
2018-06-19T02:50:39.251Z,12.33
2018-06-19T02:53:09.792Z,13.60
2018-06-19T02:55:40.615Z,14.60
2018-06-19T02:58:11.387Z,14.70
2018-06-19T03:00:41.468Z,16.70
2018-06-19T03:03:12.043Z,13.03
2018-06-19T03:05:42.982Z,11.27
2018-06-19T03:08:13.581Z,13.93
2018-06-19T03:10:44.349Z,12.93
2018-06-19T03:13:15.106Z,11.07
2018-06-19T03:15:46.223Z,12.43
2018-06-19T03:18:17.018Z,11.93
2018-06-19T03:20:47.817Z,12.00
2018-06-19T03:23:18.500Z,9.33
2018-06-19T03:25:49.268Z,14.27
2018-06-19T03:28:19.664Z,10.43
2018-06-19T03:30:50.204Z,8.93
2018-06-19T03:33:20.768Z,10.60
2018-06-19T03:35:52.288Z,13.17
2018-06-19T03:38:22.829Z,9.50
2018-06-19T03:40:54.115Z,10.43
2018-06-19T03:43:24.697Z,14.57
2018-06-19T03:45:55.312Z,10.60
2018-06-19T03:48:26.219Z,9.63
2018-06-19T03:50:57.722Z,12.53
2018-06-19T03:53:28.819Z,16.43
2018-06-19T03:55:59.035Z,16.00
2018-06-19T03:58:29.805Z,12.50
2018-06-19T04:00:59.949Z,16.73
2018-06-19T04:03:30.926Z,15.10
2018-06-19T04:06:01.692Z,17.07
2018-06-19T04:08:32.180Z,12.57
2018-06-19T04:11:03.022Z,12.70
2018-06-19T04:13:33.960Z,14.87
2018-06-19T04:16:04.655Z,13.37
2018-06-19T04:18:34.704Z,15.43
2018-06-19T04:21:05.768Z,15.63
2018-06-19T04:23:36.372Z,14.03
2018-06-19T04:26:07.211Z,15.43
2018-06-19T04:28:37.654Z,13.40
2018-06-19T04:31:08.665Z,14.47
2018-06-19T04:33:39.717Z,10.97
2018-06-19T04:36:10.952Z,11.90
2018-06-19T04:38:42.640Z,12.97
2018-06-19T04:41:13.413Z,10.60
2018-06-19T04:43:44.897Z,14.17
2018-06-19T04:46:15.403Z,11.80
2018-06-19T04:48:45.920Z,11.20
2018-06-19T04:51:16.325Z,13.40
2018-06-19T04:53:46.838Z,10.50
2018-06-19T04:56:17.278Z,12.60
2018-06-19T04:58:48.475Z,18.77
2018-06-19T05:01:19.060Z,13.63
2018-06-19T05:03:50.252Z,13.30
2018-06-19T05:06:21.202Z,12.27
2018-06-19T05:08:51.672Z,11.77
2018-06-19T05:11:22.434Z,11.37
2018-06-19T05:13:52.933Z,11.23
2018-06-19T05:16:24.291Z,12.03
2018-06-19T05:18:55.294Z,13.57
2018-06-19T05:21:26.283Z,14.27
2018-06-19T05:23:57.296Z,11.60
2018-06-19T05:26:28.287Z,11.07
2018-06-19T05:28:59.124Z,9.13
2018-06-19T05:31:30.412Z,7.67
2018-06-19T05:34:01.252Z,7.97
2018-06-19T05:36:31.648Z,7.43
2018-06-19T05:39:02.159Z,8.17
2018-06-19T05:41:32.643Z,7.53
2018-06-19T05:44:04.519Z,8.27
2018-06-19T05:46:35.856Z,6.40
2018-06-19T05:49:07.135Z,6.53
2018-06-19T05:51:37.175Z,7.30
2018-06-19T05:54:08.587Z,6.77
2018-06-19T05:56:38.790Z,8.60
2018-06-19T05:59:09.716Z,8.67
2018-06-19T06:01:40.323Z,5.97
2018-06-19T06:04:10.934Z,6.13
2018-06-19T06:06:41.823Z,5.17
2018-06-19T06:09:12.585Z,5.37
2018-06-19T06:11:42.718Z,5.60
2018-06-19T06:14:14.263Z,5.83
2018-06-19T06:16:44.944Z,5.00
2018-06-19T06:19:15.719Z,5.33
2018-06-19T06:21:46.518Z,7.20
2018-06-19T06:24:17.606Z,6.80
2018-06-19T06:26:48.331Z,4.70
2018-06-19T06:29:19.189Z,6.20
2018-06-19T06:31:49.705Z,7.10
2018-06-19T06:34:20.714Z,5.57
2018-06-19T06:36:51.710Z,5.17
2018-06-19T06:39:22.720Z,6.17
2018-06-19T06:41:53.810Z,5.33
2018-06-19T06:44:25.067Z,5.83
2018-06-19T06:46:56.395Z,5.57
2018-06-19T06:49:28.293Z,5.50
2018-06-19T06:51:59.808Z,6.20
2018-06-19T06:54:30.645Z,5.90
2018-06-19T06:57:02.498Z,5.53
2018-06-19T06:59:33.628Z,6.63
2018-06-19T07:02:05.210Z,6.77
2018-06-19T07:04:36.172Z,5.03
2018-06-19T07:07:07.253Z,5.40
2018-06-19T07:09:37.785Z,7.10
2018-06-19T07:12:09.481Z,5.00
2018-06-19T07:14:40.311Z,6.87
2018-06-19T07:17:13.003Z,9.30
2018-06-19T07:19:45.153Z,5.13
2018-06-19T07:22:16.659Z,5.63
2018-06-19T07:24:49.233Z,5.17
2018-06-19T07:27:20.707Z,5.67
2018-06-19T07:29:51.461Z,4.90
2018-06-19T07:32:22.143Z,6.10
2018-06-19T07:34:53.675Z,5.97
2018-06-19T07:37:24.674Z,5.60
2018-06-19T07:39:56.215Z,6.10
2018-06-19T07:42:27.919Z,7.07
2018-06-19T07:44:58.574Z,7.63
2018-06-19T07:47:29.414Z,5.03
2018-06-19T07:50:00.784Z,9.20
2018-06-19T07:52:32.093Z,4.67
2018-06-19T07:55:03.332Z,6.40
2018-06-19T07:57:34.600Z,5.03
2018-06-19T08:00:05.810Z,4.77
2018-06-19T08:02:36.758Z,4.83
2018-06-19T08:05:07.652Z,8.03
2018-06-19T08:07:38.335Z,4.90
2018-06-19T08:10:09.750Z,5.00
2018-06-19T08:12:40.637Z,8.80
2018-06-19T08:15:11.324Z,4.93
2018-06-19T08:17:42.561Z,7.27
2018-06-19T08:20:13.720Z,5.37
2018-06-19T08:22:46.052Z,5.30
2018-06-19T08:25:16.943Z,5.87
2018-06-19T08:27:47.907Z,6.63
2018-06-19T08:30:18.703Z,10.53
2018-06-19T08:32:49.740Z,7.20
2018-06-19T08:35:20.567Z,5.20
2018-06-19T08:37:51.538Z,4.80
2018-06-19T08:40:22.249Z,5.60
2018-06-19T08:42:53.386Z,5.60
2018-06-19T08:45:24.036Z,6.60
2018-06-19T08:47:55.036Z,6.70
2018-06-19T08:50:25.277Z,6.17
2018-06-19T08:52:55.844Z,5.07
2018-06-19T08:55:26.408Z,8.37
2018-06-19T08:57:57.526Z,3.97
2018-06-19T09:00:28.193Z,5.47
2018-06-19T09:02:58.892Z,5.33
2018-06-19T09:05:30.178Z,5.37
2018-06-19T09:08:01.205Z,5.20
2018-06-19T09:10:31.828Z,5.23
2018-06-19T09:13:02.525Z,7.23
2018-06-19T09:15:33.063Z,6.27
2018-06-19T09:18:03.768Z,6.20
2018-06-19T09:20:34.583Z,5.07
2018-06-19T09:23:05.710Z,7.60
2018-06-19T09:25:37.427Z,6.00
2018-06-19T09:28:08.247Z,7.67
2018-06-19T09:30:38.596Z,6.33
2018-06-19T09:33:09.437Z,5.33
2018-06-19T09:35:39.429Z,8.60
2018-06-19T09:38:10.110Z,7.63
2018-06-19T09:40:40.218Z,6.10
2018-06-19T09:43:10.396Z,6.23
2018-06-19T09:45:40.222Z,6.07
2018-06-19T09:48:10.160Z,5.40
2018-06-19T09:50:40.046Z,4.53
2018-06-19T09:53:09.918Z,5.77
2018-06-19T09:55:40.729Z,5.63
2018-06-19T09:58:11.775Z,4.43
2018-06-19T10:00:41.749Z,5.23
2018-06-19T10:03:11.699Z,5.97
2018-06-19T10:05:41.613Z,5.50
2018-06-19T10:08:11.920Z,6.27
2018-06-19T10:10:41.825Z,4.60
2018-06-19T10:13:11.899Z,4.40
2018-06-19T10:15:41.704Z,6.10
2018-06-19T10:18:11.804Z,7.13
2018-06-19T10:20:42.290Z,3.87
2018-06-19T10:23:12.145Z,5.70
2018-06-19T10:25:41.876Z,5.80
2018-06-19T10:28:12.930Z,4.23
2018-06-19T10:30:44.113Z,5.67
2018-06-19T10:33:13.912Z,5.47
2018-06-19T10:35:43.731Z,8.30
2018-06-19T10:38:14.359Z,6.73
2018-06-19T10:40:44.179Z,4.00
2018-06-19T10:43:13.974Z,5.10
2018-06-19T10:45:43.760Z,3.83
2018-06-19T10:48:14.105Z,5.07
2018-06-19T10:50:43.999Z,6.33
2018-06-19T10:53:13.848Z,5.80
2018-06-19T10:55:43.733Z,7.40
2018-06-19T10:58:13.475Z,6.27
2018-06-19T11:00:44.195Z,4.60
2018-06-19T11:03:14.030Z,7.33
2018-06-19T11:05:43.966Z,8.60
2018-06-19T11:08:14.165Z,6.23
2018-06-19T11:10:44.266Z,5.43
2018-06-19T11:13:14.205Z,6.60
2018-06-19T11:15:44.015Z,7.00
2018-06-19T11:18:14.662Z,5.03
2018-06-19T11:20:44.481Z,5.67
2018-06-19T11:23:15.072Z,7.23
2018-06-19T11:25:44.960Z,6.33
2018-06-19T11:28:14.809Z,6.43
2018-06-19T11:30:45.891Z,6.80
2018-06-19T11:33:15.687Z,6.67
2018-06-19T11:35:46.334Z,5.60
2018-06-19T11:38:16.398Z,4.67
2018-06-19T11:40:46.846Z,5.27
2018-06-19T11:43:17.311Z,5.30
2018-06-19T11:45:47.329Z,8.63
2018-06-19T11:48:18.128Z,7.57
2018-06-19T11:50:48.627Z,5.33
2018-06-19T11:53:18.492Z,8.13
2018-06-19T11:55:48.350Z,4.23
2018-06-19T11:58:18.257Z,3.37
2018-06-19T12:00:48.876Z,7.13
2018-06-19T12:03:19.329Z,4.73
2018-06-19T12:05:50.191Z,4.17
2018-06-19T12:08:21.083Z,4.80
2018-06-19T12:10:50.867Z,4.20
2018-06-19T12:13:20.844Z,7.00
2018-06-19T12:15:50.722Z,3.33
2018-06-19T12:18:21.444Z,6.20
2018-06-19T12:20:52.207Z,4.63
2018-06-19T12:23:23.715Z,6.73
2018-06-19T12:25:54.379Z,5.70
2018-06-19T12:28:25.186Z,4.77
2018-06-19T12:30:55.900Z,5.50
2018-06-19T12:33:26.423Z,6.03
2018-06-19T12:35:57.374Z,4.10
2018-06-19T12:38:28.008Z,6.10
2018-06-19T12:40:59.034Z,5.33
2018-06-19T12:44:59.540Z,4.50
2018-06-19T12:47:30.334Z,4.20
2018-06-19T12:51:41.995Z,7.53
2018-06-19T12:55:21.912Z,6.93
2018-06-19T12:57:53.094Z,3.87
2018-06-19T13:00:24.609Z,5.60
2018-06-19T13:03:05.713Z,12.07
2018-06-19T13:05:47.591Z,2.93
2018-06-19T13:08:18.807Z,3.65
2018-06-19T13:10:49.025Z,3.83
2018-06-19T13:13:33.237Z,6.20
2018-06-19T13:16:04.687Z,4.95
2018-06-19T13:18:46.257Z,3.27
2018-06-19T13:21:17.082Z,4.22
2018-06-19T13:23:48.276Z,5.20
2018-06-19T13:26:18.843Z,7.10
2018-06-19T13:29:58.932Z,5.45
2018-06-19T13:32:30.264Z,6.62
2018-06-19T13:35:00.882Z,5.08
2018-06-19T13:37:31.925Z,4.05
2018-06-19T13:41:21.666Z,5.37
2018-06-19T13:44:05.090Z,4.03
2018-06-19T13:46:35.719Z,5.20
2018-06-19T13:49:06.233Z,9.13
2018-06-19T13:51:36.325Z,7.08
2018-06-19T13:54:07.492Z,5.45
2018-06-19T13:57:35.376Z,6.60
2018-06-19T14:00:08.151Z,4.83
2018-06-19T14:02:38.130Z,6.03
2018-06-19T14:05:08.697Z,5.30
2018-06-19T14:08:03.162Z,2.77
2018-06-19T14:10:43.936Z,2.87
2018-06-19T14:13:13.826Z,4.90
2018-06-19T14:15:46.483Z,3.17
2018-06-19T14:18:17.202Z,5.80
2018-06-19T14:20:47.038Z,3.42
2018-06-19T14:23:16.865Z,5.27
2018-06-19T14:25:46.682Z,3.90
2018-06-19T14:28:16.421Z,8.60
2018-06-19T14:30:46.274Z,5.33
2018-06-19T14:33:16.398Z,2.90
2018-06-19T14:35:46.220Z,6.50
2018-06-19T14:38:16.193Z,2.90
2018-06-19T14:40:46.263Z,5.20
2018-06-19T14:43:16.095Z,3.33
2018-06-19T14:45:45.915Z,3.87
2018-06-19T14:48:15.686Z,2.93
2018-06-19T14:50:45.581Z,4.97
2018-06-19T14:53:15.367Z,4.73
2018-06-19T14:55:45.103Z,4.93
2018-06-19T14:58:14.904Z,6.20
2018-06-19T15:00:44.766Z,9.77
2018-06-19T15:03:14.722Z,4.40
2018-06-19T15:05:44.550Z,5.67
2018-06-19T15:08:14.386Z,4.77
2018-06-19T15:10:44.316Z,5.03
2018-06-19T15:13:14.420Z,8.37
2018-06-19T15:15:44.131Z,4.17
2018-06-19T15:18:13.871Z,3.77
2018-06-19T15:20:43.680Z,6.57
2018-06-19T15:23:13.452Z,5.43
2018-06-19T15:25:43.342Z,5.53
2018-06-19T15:28:13.125Z,4.20
2018-06-19T15:30:42.961Z,10.27
2018-06-19T15:33:12.823Z,5.17
2018-06-19T15:35:42.628Z,4.67
2018-06-19T15:38:12.381Z,5.92
2018-06-19T15:40:42.154Z,3.75
2018-06-19T15:43:11.882Z,6.03
2018-06-19T15:45:41.738Z,4.97
2018-06-19T15:48:11.506Z,8.03
2018-06-19T15:50:41.361Z,5.70
2018-06-19T15:53:11.102Z,3.33
2018-06-19T15:55:40.877Z,3.90
2018-06-19T15:58:10.747Z,3.75
2018-06-19T16:00:40.546Z,6.33
2018-06-19T16:03:10.331Z,5.47
2018-06-19T16:05:40.140Z,4.93
2018-06-19T16:08:15.062Z,7.37
2018-06-19T16:10:45.241Z,6.30
2018-06-19T16:13:15.476Z,5.93
2018-06-19T16:15:45.266Z,3.13
2018-06-19T16:18:16.092Z,8.63
2018-06-19T16:20:45.897Z,5.17
2018-06-19T16:23:15.817Z,4.73
2018-06-19T16:25:45.705Z,6.57
2018-06-19T16:28:15.537Z,5.77
2018-06-19T16:30:45.320Z,4.77
2018-06-19T16:33:15.152Z,6.77
2018-06-19T16:35:45.232Z,6.33
2018-06-19T16:38:15.020Z,10.93
2018-06-19T16:40:44.916Z,3.97
2018-06-19T16:43:14.677Z,5.07
2018-06-19T16:45:44.458Z,17.07
2018-06-19T16:48:14.354Z,4.70
2018-06-19T16:50:44.294Z,5.17
2018-06-19T16:53:14.239Z,6.37
2018-06-19T16:55:44.004Z,2.87
2018-06-19T16:58:13.840Z,3.77
2018-06-19T17:00:43.680Z,4.53
2018-06-19T17:03:13.636Z,8.47
2018-06-19T17:05:43.583Z,6.17
2018-06-19T17:08:13.339Z,4.73
2018-06-19T17:10:43.145Z,6.90
2018-06-19T17:13:13.003Z,5.70
2018-06-19T17:15:42.880Z,5.73
2018-06-19T17:18:12.709Z,5.53
2018-06-19T17:20:42.690Z,4.53
2018-06-19T17:23:12.594Z,8.10
2018-06-19T17:25:42.324Z,4.73
2018-06-19T17:28:12.097Z,9.67
2018-06-19T17:30:41.926Z,5.07
2018-06-19T17:33:11.788Z,7.87
2018-06-19T17:35:41.695Z,5.53
2018-06-19T17:38:11.462Z,4.27
2018-06-19T17:40:41.387Z,3.80
2018-06-19T17:43:11.297Z,5.30
2018-06-19T17:45:41.139Z,15.23
2018-06-19T17:48:10.948Z,4.87
2018-06-19T17:50:40.749Z,5.97
2018-06-19T17:53:10.514Z,3.70
2018-06-19T17:55:40.227Z,5.97
2018-06-19T17:58:10.089Z,4.87
2018-06-19T18:00:39.825Z,7.73
2018-06-19T18:03:09.704Z,9.47
2018-06-19T18:05:39.615Z,4.57
2018-06-19T18:08:09.394Z,9.50
2018-06-19T18:10:39.210Z,6.63
2018-06-19T18:13:09.135Z,6.63
2018-06-19T18:15:39.007Z,4.87
2018-06-19T18:18:09.126Z,5.30
2018-06-19T18:20:38.976Z,5.57
2018-06-19T18:23:08.748Z,6.80
2018-06-19T18:25:38.591Z,7.70
2018-06-19T18:28:08.429Z,5.30
2018-06-19T18:30:38.230Z,8.10
2018-06-19T18:33:08.026Z,7.67
2018-06-19T18:35:37.782Z,6.37
2018-06-19T18:38:07.691Z,7.90
2018-06-19T18:40:37.465Z,7.13
2018-06-19T18:43:08.162Z,10.47
2018-06-19T18:45:38.327Z,6.20
2018-06-19T18:48:08.159Z,9.27
2018-06-19T18:50:38.163Z,7.50
2018-06-19T18:53:08.072Z,9.40
2018-06-19T18:55:37.825Z,5.70
2018-06-19T18:58:07.603Z,9.67
2018-06-19T19:00:37.330Z,10.53
2018-06-19T19:03:07.107Z,6.87
2018-06-19T19:05:36.940Z,8.00
2018-06-19T19:08:06.806Z,12.97
2018-06-19T19:10:41.790Z,10.07
2018-06-19T19:13:11.588Z,9.27
2018-06-19T19:15:46.522Z,6.00
2018-06-19T19:18:21.524Z,6.97
2018-06-19T19:20:51.384Z,13.97
2018-06-19T19:23:21.237Z,8.17
2018-06-19T19:25:51.448Z,9.20
2018-06-19T19:28:26.410Z,11.63
2018-06-19T19:30:56.397Z,8.27
2018-06-19T19:33:26.130Z,9.03
2018-06-19T19:35:55.888Z,13.23
2018-06-19T19:38:30.998Z,10.33
2018-06-19T19:41:00.816Z,13.17
2018-06-19T19:43:30.684Z,11.07
2018-06-19T19:46:01.326Z,11.57
2018-06-19T19:48:36.325Z,10.83
2018-06-19T19:51:06.110Z,8.40
2018-06-19T19:53:35.860Z,10.70
2018-06-19T19:56:10.779Z,7.77
2018-06-19T19:58:45.810Z,10.07
2018-06-19T20:01:15.629Z,15.83
2018-06-19T20:03:45.375Z,11.93
2018-06-19T20:06:15.229Z,10.53
2018-06-19T20:08:45.001Z,8.80
2018-06-19T20:11:14.757Z,12.67
2018-06-19T20:13:44.569Z,12.67
2018-06-19T20:16:14.343Z,9.70
2018-06-19T20:18:44.214Z,9.67
2018-06-19T20:21:14.001Z,8.67
2018-06-19T20:23:43.778Z,9.00
2018-06-19T20:26:13.624Z,7.60
2018-06-19T20:28:43.448Z,8.87
2018-06-19T20:31:13.324Z,8.23
2018-06-19T20:33:43.164Z,7.90
2018-06-19T20:36:13.123Z,11.60
2018-06-19T20:38:42.878Z,8.33
2018-06-19T20:41:12.730Z,10.33
2018-06-19T20:43:42.755Z,8.73
2018-06-19T20:46:12.575Z,8.43
2018-06-19T20:48:42.442Z,9.37
2018-06-19T20:51:12.228Z,8.13
2018-06-19T20:53:42.032Z,10.03
2018-06-19T20:56:11.816Z,8.53
2018-06-19T20:58:42.497Z,7.80
2018-06-19T21:01:12.253Z,9.83
2018-06-19T21:03:42.063Z,10.17
2018-06-19T21:06:11.837Z,8.83
2018-06-19T21:08:42.781Z,10.67
2018-06-19T21:11:13.429Z,8.63
2018-06-19T21:13:43.244Z,10.07
2018-06-19T21:16:13.061Z,9.00
2018-06-19T21:18:42.861Z,12.80
2018-06-19T21:21:12.631Z,9.70
2018-06-19T21:23:42.364Z,8.57
2018-06-19T21:26:12.173Z,8.40
2018-06-19T21:28:41.961Z,8.47
2018-06-19T21:31:11.703Z,11.03
2018-06-19T21:33:41.531Z,8.63
2018-06-19T21:36:11.695Z,9.23
2018-06-19T21:38:42.557Z,9.97
2018-06-19T21:41:13.410Z,8.17
2018-06-19T21:43:44.418Z,9.13
2018-06-19T21:46:14.878Z,9.37
2018-06-19T21:48:45.431Z,13.67
2018-06-19T21:51:16.018Z,9.73
2018-06-19T21:53:46.499Z,9.10
2018-06-19T21:56:16.751Z,11.00
2018-06-19T21:58:47.326Z,12.53
2018-06-19T22:01:17.911Z,12.33
2018-06-19T22:03:49.212Z,8.70
2018-06-19T22:06:19.705Z,9.67
2018-06-19T22:08:52.080Z,10.23
2018-06-19T22:11:24.413Z,12.80
2018-06-19T22:13:55.500Z,13.80
2018-06-19T22:16:26.234Z,11.03
2018-06-19T22:18:56.690Z,11.00
2018-06-19T22:21:27.242Z,9.87
2018-06-19T22:23:58.444Z,10.00
2018-06-19T22:26:29.443Z,11.87
2018-06-19T22:29:00.028Z,15.10
2018-06-19T22:31:30.880Z,17.77
2018-06-19T22:34:00.869Z,19.27
2018-06-19T22:36:30.850Z,14.97
2018-06-19T22:39:01.438Z,19.67
2018-06-19T22:41:32.104Z,18.70
2018-06-19T22:44:02.899Z,16.30
2018-06-19T22:46:33.746Z,20.80
2018-06-19T22:49:04.448Z,15.43
2018-06-19T22:51:34.707Z,12.77
2018-06-19T22:54:05.505Z,17.07
2018-06-19T22:56:36.306Z,12.97
2018-06-19T22:59:06.415Z,16.43
2018-06-19T23:01:37.081Z,14.00
2018-06-19T23:04:08.434Z,16.77
2018-06-19T23:06:38.314Z,15.77
2018-06-19T23:09:09.915Z,17.93
2018-06-19T23:11:40.523Z,17.07
2018-06-19T23:14:11.282Z,23.30
2018-06-19T23:16:42.132Z,14.40
2018-06-19T23:19:12.032Z,16.87
2018-06-19T23:21:42.687Z,18.20
2018-06-19T23:24:14.089Z,17.57
2018-06-19T23:26:44.926Z,16.33
2018-06-19T23:29:15.836Z,14.77
2018-06-19T23:31:47.071Z,14.60
2018-06-19T23:34:17.897Z,15.27
2018-06-19T23:36:48.829Z,14.37
2018-06-19T23:39:20.499Z,14.50
2018-06-19T23:41:50.347Z,17.60
2018-06-19T23:44:20.830Z,13.43
2018-06-19T23:46:51.410Z,12.63
2018-06-19T23:49:21.949Z,15.43
2018-06-19T23:51:52.686Z,13.33
2018-06-19T23:54:23.501Z,13.10
2018-06-19T23:56:54.097Z,15.40
2018-06-19T23:59:24.805Z,17.13
